Nearby METAR Reports

 

KCOS - Colorado Springs, Colorado, USA
Distance from station: S 6mi, 9km
Updated: Thu, 19-Oct-2017 10:54pm MDT
Partly cloudy
Partly cloudy
 Wind from NE
Wind: NE 6 mph , 9 km/h
Temperature: 48°F , 9°C
Wind Chill: 45°F , 7°C
Dew Point: 34°F , 1°C
Humidity: 58%
Barometer: 29.97 inHg , 1014.9 hPa
Clouds: Partly cloudy
Visibility: 10 miles , 16 km
Cloud details: Partly cloudy 25000 ft
2017/10/20 04:54 KCOS 200454Z 04005KT 10SM SCT250 09/01 A2997 RMK AO2 SLP097 T00890006
KAFF - Usaf Academy/Cos, Colorado, USA
Distance from station: NW 7mi, 12km
Updated: Thu, 19-Oct-2017 10:58pm MDT
Clear
Clear
 Wind from N
Wind: N 9 mph , 15 km/h
Temperature: 43°F , 6°C
Wind Chill: 38°F , 3°C
Dew Point: 28°F , -2°C
Humidity: 57%
Barometer: 29.97 inHg , 1014.9 hPa
Clouds: Clear
Visibility: 10 miles , 16 km
2017/10/20 04:58 KAFF 200458Z AUTO 35008KT 10SM CLR 06/M02 A2997 RMK AO2 SLP091 T00571024
 
KFLY - Co Spngs Meadow, Colorado, USA
Distance from station: ENE 8mi, 13km
Updated: Thu, 19-Oct-2017 10:55pm MDT
Clear
Clear
 Wind from calm
Wind: Calm
Temperature: 48°F , 9°C
Dew Point: 30°F , -1°C
Humidity: 50%
Barometer: 30.01 inHg , 1016.3 hPa
Clouds: Clear
Visibility: 10 miles , 16 km
2017/10/20 04:55 KFLY 200455Z AUTO 00000KT 10SM CLR 09/M01 A3001 RMK AO2 T00861008
KFCS - Fort Carson, Colorado, USA
Distance from station: S 17mi, 27km
Updated: Thu, 19-Oct-2017 10:58pm MDT
Clear
Clear
 Wind from NNW
Wind: NNW 7 mph , 11 km/h
Temperature: 48°F , 9°C
Wind Chill: 45°F , 7°C
Dew Point: 30°F , -1°C
Humidity: 50%
Barometer: 29.93 inHg , 1013.5 hPa
Clouds: Clear
Visibility: 10 miles , 16 km
2017/10/20 04:58 KFCS 200458Z AUTO 33006KT 10SM CLR 09/M01 A2993 RMK AO2 SLP111 T00891013 $
 
KMNH - Monument/Elbert, Colorado, USA
Distance from station: N 22mi, 35km
Updated: Thu, 19-Oct-2017 10:54pm MDT
Clear
Clear
 Wind from SSW
Wind: SSW 9 mph , 15 km/h
Temperature: 45°F , 7°C
Wind Chill: 40°F , 4°C
Dew Point: 30°F , -1°C
Humidity: 57%
Barometer: 30.01 inHg , 1016.3 hPa
Clouds: Clear
Visibility: 10 miles , 16 km
2017/10/20 04:54 KMNH 200454Z AUTO 20008KT 10SM CLR 07/M01 A3001 RMK AO2
K1V6 - Canon City, Colorado, USA
Distance from station: SSW 39mi, 62km
Updated: Thu, 19-Oct-2017 10:50pm MDT
Clear
Clear
 Wind from W
Wind: W 9 mph , 15 km/h
Temperature: 52°F , 11°C
Dew Point: 32°F , 0°C
Humidity: 47%
Barometer: 29.93 inHg , 1013.5 hPa
Clouds: Clear
Visibility: 10 miles , 16 km
2017/10/20 04:50 K1V6 200450Z AUTO 27008KT 10SM CLR 11/00 A2993 RMK AO2
 
KPUB - Pueblo, Colorado, USA
Distance from station: SSE 44mi, 71km
Updated: Thu, 19-Oct-2017 10:53pm MDT
Clear
Clear
 Wind from W
Wind: W 6 mph , 9 km/h
Temperature: 48°F , 9°C
Wind Chill: 45°F , 7°C
Dew Point: 36°F , 2°C
Humidity: 62%
Barometer: 29.88 inHg , 1011.9 hPa
Clouds: Clear
Visibility: 10 miles , 16 km
2017/10/20 04:53 KPUB 200453Z AUTO 28005KT 10SM CLR 09/02 A2988 RMK AO2 SLP084 T00940017
KAPA - Denver/Arapahoe, Colorado, USA
Distance from station: N 47mi, 75km
Updated: Thu, 19-Oct-2017 10:53pm MDT
Few Clouds
Few Clouds
 Wind from S
Wind: S 8 mph , 13 km/h
Temperature: 52°F , 11°C
Dew Point: 30°F , -1°C
Humidity: 44%
Barometer: 29.91 inHg , 1012.9 hPa
Clouds: Few Clouds
Visibility: 10 miles , 16 km
Cloud details: Few Clouds 22000 ft
2017/10/20 04:53 KAPA 200453Z 18007KT 10SM FEW220 11/M01 A2991 RMK AO2 SLP079 T01061006